Time;durP1;ratioP1;P1;durP2;ratioP2;P2;SDS_P1;SDS_P2;PMS_P1;PMS_P2;Temp;Humidity;BMP_temperature;BMP_pressure;BME280_temperature;BME280_humidity;BME280_pressure;Samples;Min_cycle;Max_cycle;Signal;HPM_P1;HPM_P2
2023/08/25 00:00:09;;;;;;;49.50;36.85;;;;;;;;;;4985803;28;20085;-75
2023/08/25 00:02:35;;;;;;;50.13;38.92;;;;;;;;;;4994317;28;20034;-74
2023/08/25 00:05:01;;;;;;;47.10;37.03;;;;;;;;;;4986990;28;20045;-74
2023/08/25 00:07:27;;;;;;;45.83;37.00;;;;;;;;;;4986114;28;20050;-74
2023/08/25 00:09:53;;;;;;;48.72;39.63;;;;;;;;;;4985960;28;20469;-73
2023/08/25 00:12:19;;;;;;;47.72;38.03;;;;;;;;;;4983032;28;20033;-74
2023/08/25 00:14:45;;;;;;;46.35;38.45;;;;;;;;;;4986864;28;20046;-74
2023/08/25 00:17:11;;;;;;;49.65;37.42;;;;;;;;;;4978786;28;20046;-74
2023/08/25 00:19:37;;;;;;;47.30;38.72;;;;;;;;;;4977407;28;20039;-74
2023/08/25 00:22:04;;;;;;;51.15;38.05;;;;;;;;;;4991726;28;20081;-74
2023/08/25 00:24:33;;;;;;;51.22;37.90;;;;;;;;;;4995420;28;20058;-74
2023/08/25 00:26:59;;;;;;;46.00;36.53;;;;;;;;;;4983687;28;20069;-74
2023/08/25 00:29:25;;;;;;;44.92;34.58;;;;;;;;;;4989088;28;20061;-74
2023/08/25 00:31:51;;;;;;;45.65;37.03;;;;;;;;;;4988443;28;20488;-73
2023/08/25 00:34:17;;;;;;;44.35;35.13;;;;;;;;;;4983870;28;20065;-73
2023/08/25 00:36:43;;;;;;;50.38;38.25;;;;;;;;;;4982048;28;20049;-74
2023/08/25 00:39:10;;;;;;;54.75;36.95;;;;;;;;;;4984067;28;20058;-73
2023/08/25 00:41:36;;;;;;;43.45;36.10;;;;;;;;;;4984990;28;20027;-74
2023/08/25 00:44:02;;;;;;;47.85;36.58;;;;;;;;;;4992906;28;20035;-73
2023/08/25 00:46:28;;;;;;;51.40;37.40;;;;;;;;;;4981750;28;20031;-74
2023/08/25 00:48:55;;;;;;;48.65;36.63;;;;;;;;;;4988217;28;20041;-74
2023/08/25 00:51:21;;;;;;;46.67;35.47;;;;;;;;;;4986397;28;20567;-74
2023/08/25 00:53:48;;;;;;;46.97;39.20;;;;;;;;;;5013578;28;20499;-73
2023/08/25 00:56:14;;;;;;;43.22;36.40;;;;;;;;;;4991295;28;20043;-74
2023/08/25 00:58:41;;;;;;;50.72;37.60;;;;;;;;;;4989123;28;20042;-74
2023/08/25 01:01:07;;;;;;;48.97;35.03;;;;;;;;;;4992720;28;20046;-73
2023/08/25 01:03:34;;;;;;;43.75;35.20;;;;;;;;;;4990403;28;20101;-73
2023/08/25 01:06:00;;;;;;;49.00;36.95;;;;;;;;;;4991695;28;20062;-73
2023/08/25 01:08:26;;;;;;;54.45;38.60;;;;;;;;;;4995422;28;20476;-74
2023/08/25 01:11:11;;;;;;;49.40;38.80;;;;;;;;;;4990267;28;20247;-74
2023/08/25 01:13:45;;;;;;;54.08;37.97;;;;;;;;;;4984700;28;20172;-73
2023/08/25 01:16:16;;;;;;;55.42;39.15;;;;;;;;;;4986948;28;20070;-73
2023/08/25 01:18:42;;;;;;;52.92;39.47;;;;;;;;;;4988226;28;20125;-73
2023/08/25 01:21:08;;;;;;;51.35;36.63;;;;;;;;;;4992135;28;20029;-73
2023/08/25 01:23:53;;;;;;;49.60;37.90;;;;;;;;;;4987232;28;20034;-73
2023/08/25 01:26:19;;;;;;;43.60;35.90;;;;;;;;;;4988784;28;20100;-73
2023/08/25 01:28:49;;;;;;;46.55;36.03;;;;;;;;;;4982075;28;20472;-73
2023/08/25 01:31:15;;;;;;;44.53;34.58;;;;;;;;;;4981308;28;20026;-73
2023/08/25 01:33:45;;;;;;;48.90;36.72;;;;;;;;;;4985949;28;20027;-73
2023/08/25 01:36:12;;;;;;;50.78;39.03;;;;;;;;;;4991887;28;20046;-74
2023/08/25 01:38:47;;;;;;;55.03;37.88;;;;;;;;;;4981917;28;20130;-74
2023/08/25 01:41:32;;;;;;;53.45;37.95;;;;;;;;;;4986836;28;20488;-75
2023/08/25 01:44:00;;;;;;;50.15;36.63;;;;;;;;;;4990492;28;20042;-73
2023/08/25 01:46:27;;;;;;;51.35;37.58;;;;;;;;;;4977517;28;20124;-74
2023/08/25 01:48:53;;;;;;;49.85;37.00;;;;;;;;;;4997568;28;20092;-74
2023/08/25 01:51:20;;;;;;;47.00;36.63;;;;;;;;;;4991194;28;20391;-74
2023/08/25 01:53:48;;;;;;;53.28;38.60;;;;;;;;;;4985562;28;20027;-74
2023/08/25 01:56:14;;;;;;;56.33;39.33;;;;;;;;;;4987561;28;20042;-74
2023/08/25 01:58:40;;;;;;;63.05;42.55;;;;;;;;;;4985967;28;20113;-75
2023/08/25 02:01:06;;;;;;;46.65;36.10;;;;;;;;;;4980440;28;20109;-75
2023/08/25 02:03:32;;;;;;;48.22;38.50;;;;;;;;;;4983715;28;20078;-73
2023/08/25 02:05:58;;;;;;;53.53;37.92;;;;;;;;;;4989451;28;20635;-74
2023/08/25 02:08:24;;;;;;;55.92;40.38;;;;;;;;;;4988487;28;20026;-74
2023/08/25 02:10:51;;;;;;;47.67;37.40;;;;;;;;;;4984632;28;20034;-74
2023/08/25 02:13:17;;;;;;;54.17;41.30;;;;;;;;;;4990820;28;20022;-74
2023/08/25 02:15:45;;;;;;;56.25;42.00;;;;;;;;;;4993652;28;20076;-74
2023/08/25 02:18:11;;;;;;;56.08;40.38;;;;;;;;;;4989357;28;20092;-75
2023/08/25 02:20:41;;;;;;;56.03;39.65;;;;;;;;;;4983711;28;20077;-75
2023/08/25 02:23:10;;;;;;;62.30;42.50;;;;;;;;;;4989659;28;20080;-73
2023/08/25 02:25:36;;;;;;;54.15;41.42;;;;;;;;;;4996228;28;20178;-74
2023/08/25 02:28:02;;;;;;;61.03;43.80;;;;;;;;;;4989451;28;20034;-73
2023/08/25 02:30:28;;;;;;;55.92;41.17;;;;;;;;;;4981552;28;20129;-74
2023/08/25 02:32:55;;;;;;;59.65;42.10;;;;;;;;;;4983688;28;20041;-74
2023/08/25 02:35:21;;;;;;;62.42;43.35;;;;;;;;;;4983732;28;20099;-74
2023/08/25 02:38:04;;;;;;;66.57;45.58;;;;;;;;;;4995320;28;20562;-73
2023/08/25 02:40:30;;;;;;;61.28;43.00;;;;;;;;;;4993034;28;20062;-74
2023/08/25 02:42:56;;;;;;;59.25;43.90;;;;;;;;;;4979977;28;20095;-74
2023/08/25 02:45:26;;;;;;;61.83;45.10;;;;;;;;;;4982708;28;20061;-75
2023/08/25 02:47:52;;;;;;;69.30;47.50;;;;;;;;;;4987333;28;20427;-73
2023/08/25 02:50:19;;;;;;;60.28;43.75;;;;;;;;;;4986042;28;20041;-73
2023/08/25 02:52:45;;;;;;;57.47;41.58;;;;;;;;;;4997393;28;20026;-73
2023/08/25 02:55:14;;;;;;;64.63;43.38;;;;;;;;;;4988299;28;20022;-74
2023/08/25 02:57:41;;;;;;;52.80;39.55;;;;;;;;;;4986893;28;20053;-75
2023/08/25 03:00:08;;;;;;;59.00;42.55;;;;;;;;;;4996625;28;20606;-74
2023/08/25 03:02:34;;;;;;;57.08;40.47;;;;;;;;;;4976776;28;20026;-73
2023/08/25 03:05:00;;;;;;;56.67;39.55;;;;;;;;;;4998043;28;20048;-75
2023/08/25 03:07:26;;;;;;;64.68;42.53;;;;;;;;;;4984599;28;20148;-75
2023/08/25 03:09:52;;;;;;;55.05;41.45;;;;;;;;;;4993670;28;20038;-74
2023/08/25 03:12:18;;;;;;;62.47;43.97;;;;;;;;;;4989062;28;20047;-74
2023/08/25 03:14:44;;;;;;;69.00;43.65;;;;;;;;;;4992272;28;20180;-74
2023/08/25 03:17:10;;;;;;;56.92;38.95;;;;;;;;;;4978115;28;20043;-74
2023/08/25 03:19:39;;;;;;;65.35;42.63;;;;;;;;;;4981467;28;20045;-73
2023/08/25 03:22:05;;;;;;;64.65;40.90;;;;;;;;;;4982697;28;20218;-72
2023/08/25 03:24:31;;;;;;;55.85;38.67;;;;;;;;;;4992268;28;20022;-74
2023/08/25 03:27:00;;;;;;;68.70;45.35;;;;;;;;;;4986953;28;20037;-73
2023/08/25 03:29:26;;;;;;;60.28;37.75;;;;;;;;;;4987737;28;20039;-73
2023/08/25 03:31:52;;;;;;;62.28;42.10;;;;;;;;;;4987775;28;20033;-73
2023/08/25 03:34:19;;;;;;;62.10;40.60;;;;;;;;;;4979323;28;20031;-74
2023/08/25 03:36:46;;;;;;;63.95;40.05;;;;;;;;;;4984866;28;20041;-73
2023/08/25 03:39:12;;;;;;;72.28;43.78;;;;;;;;;;4997693;28;20060;-74
2023/08/25 03:41:38;;;;;;;64.35;42.33;;;;;;;;;;4975713;28;20034;-74
2023/08/25 03:44:05;;;;;;;67.43;43.15;;;;;;;;;;4990471;28;20034;-74
2023/08/25 03:46:34;;;;;;;74.85;44.70;;;;;;;;;;4976111;28;20034;-77
2023/08/25 03:49:00;;;;;;;72.13;44.58;;;;;;;;;;4981781;28;20409;-76
2023/08/25 03:51:26;;;;;;;62.53;39.92;;;;;;;;;;4984081;28;20034;-76
2023/08/25 03:53:52;;;;;;;68.22;42.38;;;;;;;;;;4982966;28;20047;-75
2023/08/25 03:56:18;;;;;;;68.45;43.05;;;;;;;;;;4987532;28;20034;-74
2023/08/25 03:58:45;;;;;;;64.22;42.25;;;;;;;;;;4996087;28;20041;-76
2023/08/25 04:01:11;;;;;;;162.10;113.88;;;;;;;;;;4990103;28;20034;-76
2023/08/25 04:03:37;;;;;;;74.53;49.92;;;;;;;;;;4980892;28;20030;-76
2023/08/25 04:06:03;;;;;;;64.60;41.13;;;;;;;;;;4989530;28;20046;-76
2023/08/25 04:08:29;;;;;;;74.18;45.33;;;;;;;;;;4991134;28;20070;-74
2023/08/25 04:10:55;;;;;;;64.72;42.53;;;;;;;;;;4982666;28;20030;-74
2023/08/25 04:13:21;;;;;;;57.58;39.22;;;;;;;;;;4984976;28;20045;-75
2023/08/25 04:15:55;;;;;;;63.30;40.25;;;;;;;;;;4985395;28;20042;-75
2023/08/25 04:18:21;;;;;;;65.63;40.53;;;;;;;;;;4997363;28;20027;-73
2023/08/25 04:20:47;;;;;;;65.95;41.88;;;;;;;;;;4993373;28;20047;-73
2023/08/25 04:23:12;;;;;;;66.88;41.72;;;;;;;;;;4995554;28;20033;-73
2023/08/25 04:25:39;;;;;;;62.35;40.17;;;;;;;;;;4990022;28;20791;-74
2023/08/25 04:28:05;;;;;;;63.00;41.13;;;;;;;;;;4992469;28;20037;-73
2023/08/25 04:30:31;;;;;;;61.83;38.97;;;;;;;;;;4987850;28;20035;-73
2023/08/25 04:32:57;;;;;;;185.13;135.95;;;;;;;;;;4988844;28;20070;-80
2023/08/25 04:35:23;;;;;;;182.85;120.60;;;;;;;;;;4998111;28;20038;-80
2023/08/25 04:37:50;;;;;;;76.25;48.92;;;;;;;;;;4992084;28;20030;-79
2023/08/25 04:40:16;;;;;;;79.13;47.55;;;;;;;;;;5003906;28;20050;-74
2023/08/25 04:42:43;;;;;;;67.65;44.97;;;;;;;;;;4988684;28;20026;-74
2023/08/25 04:45:10;;;;;;;67.35;44.33;;;;;;;;;;4989262;28;20034;-74
2023/08/25 04:47:36;;;;;;;67.32;42.97;;;;;;;;;;4990410;28;20018;-74
2023/08/25 04:50:03;;;;;;;66.82;43.03;;;;;;;;;;4989525;28;20089;-75
2023/08/25 04:52:29;;;;;;;73.80;46.08;;;;;;;;;;4988101;28;20046;-75
2023/08/25 04:54:55;;;;;;;78.53;46.67;;;;;;;;;;4982765;28;20047;-74
2023/08/25 04:57:21;;;;;;;73.82;46.38;;;;;;;;;;4985323;28;20043;-74
2023/08/25 04:59:47;;;;;;;74.15;46.45;;;;;;;;;;4991398;28;20089;-73
2023/08/25 05:02:13;;;;;;;66.20;42.97;;;;;;;;;;4994784;28;20030;-73
2023/08/25 05:04:39;;;;;;;72.97;45.75;;;;;;;;;;4979807;28;20062;-71
2023/08/25 05:07:05;;;;;;;69.55;46.22;;;;;;;;;;4988851;28;20488;-73
2023/08/25 05:09:31;;;;;;;62.60;42.80;;;;;;;;;;4986432;28;20097;-74
2023/08/25 05:11:57;;;;;;;65.68;41.83;;;;;;;;;;4995094;28;20026;-74
2023/08/25 05:14:23;;;;;;;70.38;43.75;;;;;;;;;;4987324;28;20889;-74
2023/08/25 05:16:49;;;;;;;69.63;46.08;;;;;;;;;;4989928;28;20038;-74
2023/08/25 05:19:15;;;;;;;96.97;63.20;;;;;;;;;;5003290;28;20030;-73
2023/08/25 05:21:41;;;;;;;74.00;45.67;;;;;;;;;;4991590;28;20030;-73
2023/08/25 05:24:17;;;;;;;70.35;45.40;;;;;;;;;;4990125;28;20388;-75
2023/08/25 05:26:44;;;;;;;69.57;42.80;;;;;;;;;;4992267;28;20426;-73
2023/08/25 05:29:10;;;;;;;74.57;45.70;;;;;;;;;;4984872;28;20041;-73
2023/08/25 05:31:36;;;;;;;71.78;45.22;;;;;;;;;;4984139;28;20033;-73
2023/08/25 05:34:02;;;;;;;65.68;42.05;;;;;;;;;;4986658;28;20917;-73
2023/08/25 05:36:28;;;;;;;68.07;43.97;;;;;;;;;;4982946;28;20071;-73
2023/08/25 05:38:54;;;;;;;80.72;44.22;;;;;;;;;;4984417;28;20117;-72
2023/08/25 05:41:20;;;;;;;76.78;47.13;;;;;;;;;;4993510;28;20054;-73
2023/08/25 05:43:46;;;;;;;76.85;45.85;;;;;;;;;;4987921;28;20046;-72
2023/08/25 05:46:12;;;;;;;81.10;48.05;;;;;;;;;;4995102;28;20042;-74
2023/08/25 05:48:39;;;;;;;74.85;46.78;;;;;;;;;;5001540;28;20042;-73
2023/08/25 05:51:05;;;;;;;71.25;45.45;;;;;;;;;;4984031;28;20034;-72
2023/08/25 05:53:31;;;;;;;92.53;51.97;;;;;;;;;;4984796;28;20156;-73
2023/08/25 05:55:57;;;;;;;94.10;54.22;;;;;;;;;;4989368;28;20472;-73
2023/08/25 05:58:24;;;;;;;96.50;52.35;;;;;;;;;;4986067;28;20105;-75
2023/08/25 06:00:50;;;;;;;90.85;50.80;;;;;;;;;;4984834;28;20054;-73
2023/08/25 06:03:16;;;;;;;90.32;51.72;;;;;;;;;;5004345;28;20498;-73
2023/08/25 06:05:42;;;;;;;81.95;49.92;;;;;;;;;;4984711;28;20042;-73
2023/08/25 06:08:09;;;;;;;90.05;52.28;;;;;;;;;;4996993;28;20069;-73
2023/08/25 06:10:35;;;;;;;89.82;55.47;;;;;;;;;;4992530;28;20056;-73
2023/08/25 06:13:01;;;;;;;89.70;53.40;;;;;;;;;;4990558;28;20026;-72
2023/08/25 06:15:27;;;;;;;90.65;52.90;;;;;;;;;;4982413;28;20568;-74
2023/08/25 06:17:53;;;;;;;90.95;54.08;;;;;;;;;;4989723;28;20083;-73
2023/08/25 06:20:21;;;;;;;94.07;54.75;;;;;;;;;;4990306;28;20061;-72
2023/08/25 06:22:47;;;;;;;96.50;54.65;;;;;;;;;;4989433;28;20045;-73
2023/08/25 06:25:13;;;;;;;94.53;54.00;;;;;;;;;;4996810;28;20144;-73
2023/08/25 06:27:39;;;;;;;76.47;49.00;;;;;;;;;;4987567;28;20037;-73
2023/08/25 06:30:05;;;;;;;79.05;50.33;;;;;;;;;;4989866;28;20027;-74
2023/08/25 06:32:31;;;;;;;87.63;52.40;;;;;;;;;;4999370;28;20050;-73
2023/08/25 06:34:57;;;;;;;82.10;52.10;;;;;;;;;;4987440;28;20104;-72
2023/08/25 06:37:23;;;;;;;79.45;49.58;;;;;;;;;;4986877;28;20034;-74
2023/08/25 06:39:49;;;;;;;80.68;49.67;;;;;;;;;;4984801;28;20396;-73
2023/08/25 06:42:16;;;;;;;81.10;48.95;;;;;;;;;;4995027;28;20026;-72
2023/08/25 06:44:42;;;;;;;74.28;48.45;;;;;;;;;;4987023;28;20034;-72
2023/08/25 06:47:08;;;;;;;77.60;49.03;;;;;;;;;;4978128;28;20034;-73
2023/08/25 06:49:35;;;;;;;84.35;49.97;;;;;;;;;;4986411;28;20101;-72
2023/08/25 06:52:01;;;;;;;81.07;50.72;;;;;;;;;;4982297;28;20113;-73
2023/08/25 06:54:27;;;;;;;74.43;49.45;;;;;;;;;;4982768;28;20026;-72
2023/08/25 06:56:53;;;;;;;78.10;46.75;;;;;;;;;;5007255;28;20039;-73
2023/08/25 06:59:19;;;;;;;68.70;45.72;;;;;;;;;;4987335;28;20026;-72
2023/08/25 07:01:45;;;;;;;70.25;46.88;;;;;;;;;;4990901;28;20124;-73
2023/08/25 07:04:11;;;;;;;70.75;46.22;;;;;;;;;;4981052;28;20042;-73
2023/08/25 07:06:38;;;;;;;70.15;45.17;;;;;;;;;;4979980;28;20045;-72
2023/08/25 07:09:04;;;;;;;67.25;45.40;;;;;;;;;;4987072;28;20041;-72
2023/08/25 07:11:30;;;;;;;71.90;47.08;;;;;;;;;;4987569;28;20603;-73
2023/08/25 07:13:56;;;;;;;68.47;42.72;;;;;;;;;;4977954;28;20038;-72
2023/08/25 07:16:22;;;;;;;77.45;45.38;;;;;;;;;;4980822;28;20121;-73
2023/08/25 07:18:48;;;;;;;72.10;45.30;;;;;;;;;;4986580;28;20535;-72
2023/08/25 07:21:14;;;;;;;75.10;45.03;;;;;;;;;;4986651;28;20034;-73
2023/08/25 07:23:43;;;;;;;66.28;44.63;;;;;;;;;;4992944;28;20092;-74
2023/08/25 07:26:10;;;;;;;66.43;43.22;;;;;;;;;;4983771;28;20465;-72
2023/08/25 07:28:36;;;;;;;68.72;43.38;;;;;;;;;;4978610;28;20035;-73
2023/08/25 07:31:04;;;;;;;60.63;39.95;;;;;;;;;;4993831;28;20120;-74
2023/08/25 07:33:30;;;;;;;64.38;41.42;;;;;;;;;;4989833;28;20134;-73
2023/08/25 07:35:57;;;;;;;59.75;41.78;;;;;;;;;;4979801;28;20034;-73
2023/08/25 07:38:24;;;;;;;63.70;39.50;;;;;;;;;;4985519;28;20465;-72
2023/08/25 07:40:50;;;;;;;61.10;40.55;;;;;;;;;;4990443;28;20046;-72
2023/08/25 07:43:16;;;;;;;73.65;43.70;;;;;;;;;;4984435;28;20077;-72
2023/08/25 07:45:43;;;;;;;63.45;41.78;;;;;;;;;;4989044;28;20031;-73
2023/08/25 07:48:09;;;;;;;63.63;41.80;;;;;;;;;;4985567;28;20040;-72
2023/08/25 07:50:35;;;;;;;62.92;42.40;;;;;;;;;;4986340;28;20037;-73
2023/08/25 07:53:02;;;;;;;52.22;36.35;;;;;;;;;;4986465;28;20049;-73
2023/08/25 07:55:28;;;;;;;55.85;34.28;;;;;;;;;;4985002;28;20105;-73
2023/08/25 07:57:55;;;;;;;50.22;37.05;;;;;;;;;;4995737;28;20072;-76
2023/08/25 08:00:21;;;;;;;61.92;36.80;;;;;;;;;;4992242;28;20486;-73
2023/08/25 08:02:48;;;;;;;52.80;36.80;;;;;;;;;;4981030;28;20038;-72
2023/08/25 08:05:15;;;;;;;58.63;37.78;;;;;;;;;;4996207;28;20070;-74
2023/08/25 08:07:45;;;;;;;50.50;33.67;;;;;;;;;;4987713;28;20018;-73
2023/08/25 08:10:11;;;;;;;51.85;36.08;;;;;;;;;;4986469;28;20562;-74
2023/08/25 08:12:38;;;;;;;44.15;31.85;;;;;;;;;;4979085;28;20081;-75
2023/08/25 08:15:05;;;;;;;42.90;31.55;;;;;;;;;;4986297;28;20038;-75
2023/08/25 08:17:31;;;;;;;44.97;30.35;;;;;;;;;;4989172;28;20053;-75
2023/08/25 08:19:57;;;;;;;42.28;30.70;;;;;;;;;;4991733;28;20069;-73
2023/08/25 08:22:23;;;;;;;50.67;33.15;;;;;;;;;;4984521;28;20056;-84
2023/08/25 08:24:50;;;;;;;70.18;48.25;;;;;;;;;;4988073;28;20026;-85
2023/08/25 08:27:16;;;;;;;37.92;27.95;;;;;;;;;;4977896;28;20042;-82
2023/08/25 08:29:43;;;;;;;40.90;28.02;;;;;;;;;;4982083;28;20495;-82
2023/08/25 08:32:09;;;;;;;33.95;24.35;;;;;;;;;;4987593;28;20038;-76
2023/08/25 08:34:36;;;;;;;38.75;25.02;;;;;;;;;;4991079;28;20037;-75
2023/08/25 08:37:05;;;;;;;38.42;21.60;;;;;;;;;;4984547;28;20660;-76
2023/08/25 08:39:31;;;;;;;36.50;21.67;;;;;;;;;;4991599;28;20034;-73
2023/08/25 08:41:57;;;;;;;31.92;21.65;;;;;;;;;;4988317;28;20042;-74
2023/08/25 08:44:23;;;;;;;31.63;20.55;;;;;;;;;;5000185;28;20236;-76
2023/08/25 08:46:49;;;;;;;32.92;21.58;;;;;;;;;;4985820;28;20389;-74
2023/08/25 08:49:16;;;;;;;37.05;24.25;;;;;;;;;;4984022;28;20034;-82
2023/08/25 08:51:42;;;;;;;112.20;83.07;;;;;;;;;;4994882;28;20404;-79
2023/08/25 08:54:09;;;;;;;33.10;21.35;;;;;;;;;;4982853;28;20046;-73
2023/08/25 08:56:35;;;;;;;33.53;22.20;;;;;;;;;;4987468;28;20043;-72
2023/08/25 08:59:06;;;;;;;34.00;21.13;;;;;;;;;;4982717;28;20054;-73
2023/08/25 09:01:33;;;;;;;36.05;20.67;;;;;;;;;;5001384;28;20023;-73
2023/08/25 09:04:01;;;;;;;35.70;21.80;;;;;;;;;;4987694;28;20030;-74
2023/08/25 09:06:31;;;;;;;27.70;17.67;;;;;;;;;;4987629;28;20066;-72
2023/08/25 09:08:59;;;;;;;30.20;19.75;;;;;;;;;;4992193;28;20568;-74
2023/08/25 09:11:25;;;;;;;28.92;19.05;;;;;;;;;;4986693;28;20129;-76
2023/08/25 09:13:57;;;;;;;30.75;20.45;;;;;;;;;;4988454;28;20209;-71
2023/08/25 09:16:23;;;;;;;33.42;19.75;;;;;;;;;;4980307;28;20036;-72
2023/08/25 09:18:49;;;;;;;33.10;21.00;;;;;;;;;;4991306;28;20044;-75
2023/08/25 09:21:16;;;;;;;29.15;20.55;;;;;;;;;;4991666;28;20057;-74
2023/08/25 09:23:53;;;;;;;32.78;20.67;;;;;;;;;;4992313;28;20471;-73
2023/08/25 09:26:19;;;;;;;32.33;21.30;;;;;;;;;;4987231;28;20034;-75
2023/08/25 09:28:45;;;;;;;28.73;20.85;;;;;;;;;;4988480;28;20363;-75
2023/08/25 09:31:28;;;;;;;34.38;19.38;;;;;;;;;;4993854;28;20033;-74
2023/08/25 09:34:04;;;;;;;33.08;21.20;;;;;;;;;;4994547;28;20037;-73
2023/08/25 09:36:30;;;;;;;31.00;19.42;;;;;;;;;;5006884;28;20494;-75
2023/08/25 09:38:56;;;;;;;28.73;20.48;;;;;;;;;;4986498;28;20038;-75
2023/08/25 09:41:23;;;;;;;31.00;20.02;;;;;;;;;;4981557;28;20041;-76
2023/08/25 09:43:50;;;;;;;39.08;21.25;;;;;;;;;;4992017;28;20046;-74
2023/08/25 09:46:16;;;;;;;38.10;26.77;;;;;;;;;;4990158;28;20309;-75
2023/08/25 09:48:45;;;;;;;34.60;21.25;;;;;;;;;;4989736;28;20595;-77
2023/08/25 09:51:11;;;;;;;34.33;22.75;;;;;;;;;;4990151;28;20106;-75
2023/08/25 09:53:39;;;;;;;30.95;21.35;;;;;;;;;;4984775;28;20484;-75
2023/08/25 09:56:06;;;;;;;35.70;21.80;;;;;;;;;;4990044;28;20034;-71
2023/08/25 09:58:32;;;;;;;26.48;20.40;;;;;;;;;;5000678;28;20033;-72
2023/08/25 10:00:58;;;;;;;29.15;21.70;;;;;;;;;;4985590;28;20038;-73
2023/08/25 10:03:24;;;;;;;38.28;22.45;;;;;;;;;;4989716;28;20042;-74
2023/08/25 10:05:51;;;;;;;37.20;22.67;;;;;;;;;;4989830;28;20491;-72
2023/08/25 10:08:17;;;;;;;29.90;20.70;;;;;;;;;;4985268;28;20488;-72
2023/08/25 10:10:44;;;;;;;34.72;22.50;;;;;;;;;;4999343;28;20030;-74
2023/08/25 10:13:14;;;;;;;38.65;22.92;;;;;;;;;;4991991;28;20034;-75
2023/08/25 10:15:41;;;;;;;30.95;21.63;;;;;;;;;;4990445;28;20077;-75
2023/08/25 10:18:08;;;;;;;29.02;21.70;;;;;;;;;;4986222;28;20353;-74
2023/08/25 10:20:35;;;;;;;32.60;22.25;;;;;;;;;;4985678;28;20071;-74
2023/08/25 10:23:04;;;;;;;34.30;24.60;;;;;;;;;;4995442;28;20070;-73
2023/08/25 10:25:31;;;;;;;32.50;22.05;;;;;;;;;;5002636;28;20054;-75
2023/08/25 10:28:01;;;;;;;36.97;23.60;;;;;;;;;;4994673;28;20042;-73
2023/08/25 10:30:27;;;;;;;36.75;24.95;;;;;;;;;;4989278;28;20096;-74
2023/08/25 10:33:05;;;;;;;36.67;24.95;;;;;;;;;;4989552;28;20117;-76
2023/08/25 10:35:39;;;;;;;32.50;23.25;;;;;;;;;;4984444;28;20037;-73
2023/08/25 10:38:10;;;;;;;38.58;24.67;;;;;;;;;;4992973;28;20382;-75
2023/08/25 10:40:41;;;;;;;41.35;29.65;;;;;;;;;;4987054;28;20475;-77
2023/08/25 10:43:08;;;;;;;173.18;127.20;;;;;;;;;;4986626;28;20042;-76
2023/08/25 10:45:37;;;;;;;40.33;28.63;;;;;;;;;;4987339;28;20062;-74
2023/08/25 10:48:03;;;;;;;36.03;25.33;;;;;;;;;;4993063;28;20380;-75
2023/08/25 10:50:29;;;;;;;36.55;24.83;;;;;;;;;;4981829;28;20544;-73
2023/08/25 10:52:55;;;;;;;40.65;26.58;;;;;;;;;;4979189;28;20265;-77
2023/08/25 10:55:36;;;;;;;35.20;23.48;;;;;;;;;;4981523;28;20042;-79
2023/08/25 10:58:03;;;;;;;38.80;25.65;;;;;;;;;;4978799;28;20125;-73
2023/08/25 11:00:33;;;;;;;38.92;24.27;;;;;;;;;;4982456;28;20046;-78
2023/08/25 11:03:01;;;;;;;37.17;25.60;;;;;;;;;;4984283;28;20026;-76
2023/08/25 11:05:36;;;;;;;39.35;27.70;;;;;;;;;;4981167;28;20034;-74
2023/08/25 11:08:03;;;;;;;42.25;27.95;;;;;;;;;;4978178;28;20018;-74
2023/08/25 11:10:33;;;;;;;39.55;26.55;;;;;;;;;;4983071;28;20395;-75
2023/08/25 11:13:00;;;;;;;35.22;26.30;;;;;;;;;;4983708;28;20030;-74
2023/08/25 11:15:29;;;;;;;38.63;27.38;;;;;;;;;;4982209;28;20029;-75
2023/08/25 11:17:55;;;;;;;35.67;26.48;;;;;;;;;;4989693;28;20137;-74
2023/08/25 11:20:21;;;;;;;36.58;25.58;;;;;;;;;;4979970;28;20198;-76
2023/08/25 11:22:54;;;;;;;32.13;24.27;;;;;;;;;;4985079;28;20042;-78
2023/08/25 11:25:20;;;;;;;30.63;24.05;;;;;;;;;;4982577;28;20043;-75
2023/08/25 11:27:50;;;;;;;36.03;26.35;;;;;;;;;;4983471;28;20022;-78
2023/08/25 11:30:16;;;;;;;38.20;24.77;;;;;;;;;;4981608;28;20073;-76
2023/08/25 11:32:45;;;;;;;31.60;24.77;;;;;;;;;;4999726;28;20097;-78
2023/08/25 11:35:11;;;;;;;32.42;25.88;;;;;;;;;;5000804;28;20372;-73
2023/08/25 11:37:37;;;;;;;33.35;25.00;;;;;;;;;;4981190;28;20462;-74
2023/08/25 11:40:03;;;;;;;43.03;31.67;;;;;;;;;;4983725;28;20053;-75
2023/08/25 11:42:29;;;;;;;238.80;170.63;;;;;;;;;;4987086;28;20058;-76
2023/08/25 11:44:55;;;;;;;47.50;33.78;;;;;;;;;;4990235;28;20472;-75
2023/08/25 11:47:22;;;;;;;42.78;28.15;;;;;;;;;;4983892;28;20092;-76
2023/08/25 11:49:51;;;;;;;33.53;23.80;;;;;;;;;;4987165;28;20030;-74
2023/08/25 11:52:17;;;;;;;33.40;23.35;;;;;;;;;;4982721;28;20034;-74
2023/08/25 11:54:48;;;;;;;41.70;26.02;;;;;;;;;;4987742;28;20097;-74
2023/08/25 11:57:14;;;;;;;32.95;24.85;;;;;;;;;;4994543;28;20034;-73
2023/08/25 11:59:45;;;;;;;31.60;23.30;;;;;;;;;;4986471;28;20031;-73
2023/08/25 12:02:15;;;;;;;31.13;23.20;;;;;;;;;;4984570;28;20022;-76
2023/08/25 12:04:52;;;;;;;29.00;22.63;;;;;;;;;;4980446;28;20037;-73
2023/08/25 12:07:25;;;;;;;32.22;23.15;;;;;;;;;;4991334;28;20022;-75
2023/08/25 12:09:55;;;;;;;30.90;23.27;;;;;;;;;;4984661;28;20547;-74
2023/08/25 12:12:21;;;;;;;28.10;22.90;;;;;;;;;;4994278;28;20045;-71
2023/08/25 12:14:50;;;;;;;31.60;21.38;;;;;;;;;;4990120;28;20034;-71
2023/08/25 12:17:29;;;;;;;30.50;22.80;;;;;;;;;;4977517;28;20515;-73
2023/08/25 12:19:56;;;;;;;26.02;18.70;;;;;;;;;;4988591;28;20038;-75
2023/08/25 12:22:23;;;;;;;29.73;20.50;;;;;;;;;;4989190;28;20041;-74
2023/08/25 12:24:49;;;;;;;30.20;21.02;;;;;;;;;;4986123;28;20026;-75
2023/08/25 12:27:15;;;;;;;25.95;18.25;;;;;;;;;;4981860;28;20042;-76
2023/08/25 12:29:41;;;;;;;26.45;18.63;;;;;;;;;;4990337;28;20035;-75
2023/08/25 12:32:07;;;;;;;24.98;17.90;;;;;;;;;;4970054;28;20023;-75
2023/08/25 12:34:34;;;;;;;25.75;16.17;;;;;;;;;;4984818;28;20335;-74
2023/08/25 12:37:00;;;;;;;22.95;15.52;;;;;;;;;;4977959;28;20030;-75
2023/08/25 12:39:26;;;;;;;24.10;16.52;;;;;;;;;;4985369;28;20503;-75
2023/08/25 12:41:52;;;;;;;23.58;16.20;;;;;;;;;;4983446;28;20082;-75
2023/08/25 12:44:18;;;;;;;23.23;16.67;;;;;;;;;;4989548;28;20113;-75
2023/08/25 12:46:44;;;;;;;20.13;15.20;;;;;;;;;;4989271;28;20084;-75
2023/08/25 12:49:10;;;;;;;25.65;17.20;;;;;;;;;;4987405;28;20034;-75
2023/08/25 12:51:36;;;;;;;24.60;16.75;;;;;;;;;;4983912;28;20455;-74
2023/08/25 12:54:13;;;;;;;22.05;17.05;;;;;;;;;;4987434;28;20384;-75
2023/08/25 12:56:39;;;;;;;23.27;15.63;;;;;;;;;;4982379;28;20034;-75
2023/08/25 12:59:05;;;;;;;24.90;16.17;;;;;;;;;;4990811;28;20038;-74
2023/08/25 13:01:31;;;;;;;34.33;17.83;;;;;;;;;;4985000;28;20039;-74
2023/08/25 13:03:57;;;;;;;27.90;17.90;;;;;;;;;;4993594;28;20046;-74
2023/08/25 13:06:23;;;;;;;20.35;14.60;;;;;;;;;;4982784;28;20089;-74
2023/08/25 13:08:49;;;;;;;26.77;15.02;;;;;;;;;;4988126;28;20468;-74
2023/08/25 13:11:15;;;;;;;29.02;17.60;;;;;;;;;;4983339;28;20092;-74
2023/08/25 13:13:41;;;;;;;25.83;16.20;;;;;;;;;;4988164;28;20034;-74
2023/08/25 13:16:10;;;;;;;18.92;13.25;;;;;;;;;;4977134;28;20110;-75
2023/08/25 13:18:36;;;;;;;22.70;15.63;;;;;;;;;;4984643;28;20523;-75
2023/08/25 13:21:02;;;;;;;31.42;16.95;;;;;;;;;;4981204;28;20038;-75
2023/08/25 13:23:28;;;;;;;25.52;14.82;;;;;;;;;;4990129;28;20125;-75
2023/08/25 13:25:54;;;;;;;22.83;14.48;;;;;;;;;;4988053;28;20042;-74
2023/08/25 13:28:20;;;;;;;23.33;14.30;;;;;;;;;;4992824;28;20042;-74
2023/08/25 13:30:47;;;;;;;22.55;14.68;;;;;;;;;;4984088;28;20037;-74
2023/08/25 13:33:13;;;;;;;23.63;15.57;;;;;;;;;;4985994;28;20113;-74
2023/08/25 13:35:39;;;;;;;24.77;16.75;;;;;;;;;;4980667;28;20563;-75
2023/08/25 13:38:05;;;;;;;24.60;16.70;;;;;;;;;;4988140;28;20042;-74
2023/08/25 13:40:32;;;;;;;26.95;18.27;;;;;;;;;;4990217;28;20038;-74
2023/08/25 13:42:58;;;;;;;26.90;18.42;;;;;;;;;;4984042;28;20085;-75
2023/08/25 13:45:24;;;;;;;23.67;17.88;;;;;;;;;;4990220;28;20516;-74
2023/08/25 13:47:50;;;;;;;23.58;17.90;;;;;;;;;;4983969;28;20077;-74
2023/08/25 13:50:16;;;;;;;22.85;16.52;;;;;;;;;;4987741;28;20782;-75
2023/08/25 13:52:42;;;;;;;28.60;16.60;;;;;;;;;;4983947;28;20035;-75
2023/08/25 13:55:09;;;;;;;25.05;16.42;;;;;;;;;;4985037;28;20050;-75
2023/08/25 13:57:37;;;;;;;20.38;15.27;;;;;;;;;;4990113;28;20419;-75
2023/08/25 14:00:05;;;;;;;20.88;14.32;;;;;;;;;;4993507;28;20392;-74
2023/08/25 14:02:31;;;;;;;21.05;13.90;;;;;;;;;;4989660;28;20029;-75
2023/08/25 14:04:57;;;;;;;21.52;14.57;;;;;;;;;;4988128;28;20443;-76
2023/08/25 14:07:23;;;;;;;20.80;14.52;;;;;;;;;;4988865;28;20129;-76
2023/08/25 14:09:49;;;;;;;25.25;14.00;;;;;;;;;;4988959;28;20030;-74
2023/08/25 14:12:17;;;;;;;25.27;15.82;;;;;;;;;;4988934;28;20042;-74
2023/08/25 14:14:43;;;;;;;23.05;14.50;;;;;;;;;;4988566;28;20214;-74